createdAt,value
2018-11-26T00:02:14.433Z,26.73
2018-11-26T00:04:44.807Z,22.40
2018-11-26T00:07:15.208Z,24.80
2018-11-26T00:10:56.901Z,21.33
2018-11-26T00:13:31.339Z,23.33
2018-11-26T00:16:01.705Z,24.87
2018-11-26T00:18:32.790Z,23.03
2018-11-26T00:21:10.481Z,22.10
2018-11-26T00:23:41.854Z,22.53
2018-11-26T00:26:12.201Z,21.13
2018-11-26T00:28:42.542Z,23.53
2018-11-26T00:31:13.623Z,22.07
2018-11-26T00:33:44.998Z,22.03
2018-11-26T00:36:15.381Z,20.60
2018-11-26T00:38:45.702Z,22.30
2018-11-26T00:41:16.048Z,21.53
2018-11-26T00:43:46.452Z,21.73
2018-11-26T00:46:16.824Z,20.40
2018-11-26T00:48:47.191Z,19.93
2018-11-26T00:51:18.305Z,21.60
2018-11-26T00:53:48.655Z,22.40
2018-11-26T00:56:19.022Z,23.40
2018-11-26T00:58:49.416Z,19.50
2018-11-26T01:01:20.527Z,22.77
2018-11-26T01:03:50.906Z,26.90
2018-11-26T01:06:21.288Z,20.83
2018-11-26T01:08:51.655Z,22.27
2018-11-26T01:11:22.730Z,21.73
2018-11-26T01:14:14.516Z,22.50
2018-11-26T01:16:47.691Z,21.47
2018-11-26T01:19:18.049Z,21.57
2018-11-26T01:21:48.436Z,23.27
2018-11-26T01:24:18.807Z,21.60
2018-11-26T01:26:49.123Z,21.97
2018-11-26T01:29:19.468Z,20.63
2018-11-26T01:31:55.921Z,21.97
2018-11-26T01:34:26.320Z,23.07
2018-11-26T01:36:58.485Z,25.50
2018-11-26T01:39:29.595Z,23.90
2018-11-26T01:42:00.012Z,24.33
2018-11-26T01:44:32.423Z,25.73
2018-11-26T01:47:02.739Z,23.87
2018-11-26T01:49:33.082Z,25.37
2018-11-26T01:52:03.399Z,27.27
2018-11-26T01:54:33.716Z,24.77
2018-11-26T01:57:04.109Z,26.30
2018-11-26T01:59:36.527Z,24.63
2018-11-26T02:02:06.892Z,22.47
2018-11-26T02:04:37.279Z,25.00
2018-11-26T02:07:08.396Z,25.27
2018-11-26T02:09:38.711Z,26.73
2018-11-26T02:12:28.465Z,26.07
2018-11-26T02:14:58.837Z,25.70
2018-11-26T02:17:29.206Z,27.33
2018-11-26T02:19:59.594Z,25.53
2018-11-26T02:22:29.908Z,26.10
2018-11-26T02:25:00.266Z,22.57
2018-11-26T02:27:31.428Z,24.40
2018-11-26T02:30:01.796Z,24.27
2018-11-26T02:32:36.266Z,23.87
2018-11-26T02:35:07.414Z,22.33
2018-11-26T02:37:38.497Z,26.70
2018-11-26T02:40:29.231Z,24.13
2018-11-26T02:45:42.315Z,25.33
2018-11-26T02:48:12.635Z,26.43
2018-11-26T02:50:43.269Z,24.13
2018-11-26T02:53:14.416Z,25.53
2018-11-26T02:55:44.781Z,24.93
2018-11-26T02:58:15.095Z,26.13
2018-11-26T03:00:45.432Z,25.00
2018-11-26T03:03:15.809Z,24.73
2018-11-26T03:05:46.185Z,23.33
2018-11-26T03:08:16.577Z,25.13
2018-11-26T03:10:46.952Z,24.93
2018-11-26T03:13:17.256Z,23.30
2018-11-26T03:15:48.676Z,25.57
2018-11-26T03:18:19.035Z,26.50
2018-11-26T03:20:56.742Z,26.57
2018-11-26T03:23:27.112Z,24.17
2018-11-26T03:25:57.491Z,26.60
2018-11-26T03:28:27.832Z,25.53
2018-11-26T03:30:58.199Z,25.07
2018-11-26T03:33:28.549Z,26.80
2018-11-26T03:36:03.039Z,26.33
2018-11-26T03:38:39.276Z,27.10
2018-11-26T03:41:09.626Z,26.53
2018-11-26T03:43:40.707Z,23.60
2018-11-26T03:46:17.224Z,28.33
2018-11-26T03:48:47.584Z,26.53
2018-11-26T03:51:17.896Z,28.57
2018-11-26T03:53:48.272Z,25.97
2018-11-26T03:56:18.585Z,29.03
2018-11-26T03:59:08.331Z,28.53
2018-11-26T04:01:38.682Z,24.70
2018-11-26T04:04:16.190Z,24.27
2018-11-26T04:07:05.916Z,25.80
2018-11-26T04:09:37.081Z,27.77
2018-11-26T04:12:07.400Z,26.67
2018-11-26T04:14:37.710Z,26.70
2018-11-26T04:17:09.070Z,27.57
2018-11-26T04:19:39.381Z,23.70
2018-11-26T04:22:10.460Z,25.47
2018-11-26T04:24:41.876Z,27.73
2018-11-26T04:27:13.015Z,26.07
2018-11-26T04:29:43.378Z,25.60
2018-11-26T04:32:13.720Z,27.47
2018-11-26T04:34:44.029Z,24.97
2018-11-26T04:37:15.427Z,27.13
2018-11-26T04:39:45.771Z,29.77
2018-11-26T04:42:16.892Z,30.40
2018-11-26T04:44:47.236Z,32.73
2018-11-26T04:47:18.393Z,33.00
2018-11-26T04:49:48.767Z,28.70
2018-11-26T04:52:21.175Z,31.90
2018-11-26T04:54:52.337Z,25.47
2018-11-26T04:57:23.420Z,30.27
2018-11-26T04:59:55.823Z,30.40
2018-11-26T05:02:26.202Z,29.60
2018-11-26T05:04:56.575Z,28.23
2018-11-26T05:07:26.884Z,30.67
2018-11-26T05:09:57.262Z,30.50
2018-11-26T05:12:27.580Z,28.73
2018-11-26T05:14:57.922Z,29.00
2018-11-26T05:17:29.354Z,32.17
2018-11-26T05:20:01.492Z,32.53
2018-11-26T05:22:31.833Z,29.70
2018-11-26T05:25:03.013Z,34.27
2018-11-26T05:27:33.361Z,28.40
2018-11-26T05:30:25.118Z,31.43
2018-11-26T05:32:55.469Z,30.93
2018-11-26T05:35:25.851Z,31.30
2018-11-26T05:37:56.184Z,28.23
2018-11-26T05:40:26.552Z,27.50
2018-11-26T05:42:57.683Z,29.50
2018-11-26T05:45:29.110Z,32.33
2018-11-26T05:47:59.428Z,28.63
2018-11-26T05:50:29.777Z,33.30
2018-11-26T05:53:00.175Z,29.87
2018-11-26T05:55:32.589Z,28.97
2018-11-26T05:58:03.707Z,28.80
2018-11-26T06:00:34.044Z,28.00
2018-11-26T06:03:04.415Z,28.53
2018-11-26T06:05:34.767Z,31.43
2018-11-26T06:08:26.524Z,27.80
2018-11-26T06:10:56.904Z,27.73
2018-11-26T06:13:27.252Z,28.53
2018-11-26T06:15:57.622Z,28.27
2018-11-26T06:18:28.762Z,27.60
2018-11-26T06:21:00.916Z,27.87
2018-11-26T06:23:31.328Z,26.27
2018-11-26T06:26:01.668Z,24.53
2018-11-26T06:28:32.044Z,22.73
2018-11-26T06:31:02.428Z,24.57
2018-11-26T06:33:33.505Z,26.13
2018-11-26T06:36:03.877Z,25.97
2018-11-26T06:38:34.223Z,22.47
2018-11-26T06:41:05.340Z,26.07
2018-11-26T06:43:35.659Z,25.73
2018-11-26T06:46:06.061Z,22.00
2018-11-26T06:51:23.074Z,21.13
2018-11-26T06:53:53.432Z,22.17
2018-11-26T06:56:23.741Z,23.63
2018-11-26T06:58:54.122Z,26.30
2018-11-26T07:01:24.492Z,21.23
2018-11-26T07:03:54.843Z,23.23
2018-11-26T07:06:44.604Z,21.37
2018-11-26T07:09:15.024Z,25.40
2018-11-26T07:11:45.323Z,24.27
2018-11-26T07:14:16.589Z,24.03
2018-11-26T07:17:07.295Z,24.77
2018-11-26T07:19:37.696Z,23.70
2018-11-26T07:22:09.064Z,32.97
2018-11-26T07:24:39.437Z,21.33
2018-11-26T07:27:09.846Z,23.10
2018-11-26T07:29:40.170Z,22.43
2018-11-26T07:32:11.574Z,26.23
2018-11-26T07:34:42.728Z,25.50
2018-11-26T07:37:14.018Z,27.90
2018-11-26T07:39:50.562Z,25.07
2018-11-26T07:42:20.886Z,26.30
2018-11-26T07:44:51.227Z,28.40
2018-11-26T07:47:23.681Z,27.43
2018-11-26T07:49:53.998Z,22.87
2018-11-26T07:52:25.116Z,27.17
2018-11-26T07:54:55.514Z,22.83
2018-11-26T07:57:25.831Z,30.70
2018-11-26T08:00:15.541Z,28.37
2018-11-26T08:02:45.903Z,25.87
2018-11-26T08:05:18.000Z,28.03
2018-11-26T08:08:07.499Z,27.43
2018-11-26T08:10:37.944Z,26.10
2018-11-26T08:13:08.238Z,24.70
2018-11-26T08:15:43.749Z,27.17
2018-11-26T08:18:14.119Z,24.70
2018-11-26T08:20:44.477Z,25.77
2018-11-26T08:23:15.633Z,27.87
2018-11-26T08:25:46.769Z,27.90
2018-11-26T08:28:17.889Z,29.13
2018-11-26T08:30:48.283Z,24.93
2018-11-26T08:33:18.639Z,28.10
2018-11-26T08:35:49.010Z,33.67
2018-11-26T08:38:19.404Z,25.53
2018-11-26T08:40:49.755Z,27.27
2018-11-26T08:43:20.886Z,25.03
2018-11-26T08:45:54.092Z,28.13
2018-11-26T08:48:24.461Z,28.23
2018-11-26T08:51:15.234Z,28.27
2018-11-26T08:53:45.605Z,27.50
2018-11-26T08:56:16.034Z,28.40
2018-11-26T08:59:06.701Z,26.00
2018-11-26T09:01:39.058Z,30.90
2018-11-26T09:04:08.446Z,27.73
2018-11-26T09:06:40.573Z,28.27
2018-11-26T09:09:10.888Z,25.50
2018-11-26T09:12:01.675Z,25.67
2018-11-26T09:14:32.048Z,27.30
2018-11-26T09:17:02.413Z,24.00
2018-11-26T09:19:32.813Z,25.80
2018-11-26T09:22:03.932Z,25.37
2018-11-26T09:24:34.300Z,25.67
2018-11-26T09:27:09.756Z,30.83
2018-11-26T09:29:35.073Z,24.17
2018-11-26T09:32:05.443Z,25.73
2018-11-26T09:34:35.842Z,26.67
2018-11-26T09:37:25.560Z,23.03
2018-11-26T09:39:55.964Z,21.90
2018-11-26T09:42:26.328Z,25.23
2018-11-26T09:44:57.464Z,24.53
2018-11-26T09:47:28.606Z,23.07
2018-11-26T09:49:59.724Z,22.50
2018-11-26T09:52:30.082Z,23.20
2018-11-26T09:55:01.190Z,21.57
2018-11-26T09:57:31.557Z,20.10
2018-11-26T10:00:02.642Z,22.13
2018-11-26T10:02:40.137Z,22.40
2018-11-26T10:05:30.847Z,24.67
2018-11-26T10:08:19.527Z,23.83
2018-11-26T10:10:49.910Z,20.63
2018-11-26T10:13:20.278Z,22.57
2018-11-26T10:15:50.668Z,25.27
2018-11-26T10:18:40.357Z,22.77
2018-11-26T10:21:13.826Z,23.03
2018-11-26T10:23:44.201Z,22.93
2018-11-26T10:26:14.564Z,23.33
2018-11-26T10:28:45.728Z,25.17
2018-11-26T10:31:16.104Z,21.33
2018-11-26T10:33:46.481Z,21.27
2018-11-26T10:36:17.890Z,22.80
2018-11-26T10:38:48.258Z,21.03
2018-11-26T10:41:18.611Z,22.37
2018-11-26T10:44:08.317Z,28.87
2018-11-26T10:46:38.632Z,24.20
2018-11-26T10:49:11.049Z,26.40
2018-11-26T10:51:42.459Z,21.80
2018-11-26T10:54:12.824Z,22.70
2018-11-26T10:56:43.171Z,24.97
2018-11-26T10:59:13.560Z,24.47
2018-11-26T11:04:26.705Z,23.00
2018-11-26T11:06:57.837Z,25.13
2018-11-26T11:09:28.204Z,25.63
2018-11-26T11:11:58.614Z,23.70
2018-11-26T11:14:28.966Z,23.33
2018-11-26T11:16:59.319Z,22.47
2018-11-26T11:19:29.698Z,24.13
2018-11-26T11:22:00.064Z,23.03
2018-11-26T11:24:51.867Z,22.47
2018-11-26T11:27:22.270Z,24.67
2018-11-26T11:29:52.796Z,22.80
2018-11-26T11:32:24.243Z,25.40
2018-11-26T11:34:55.592Z,23.97
2018-11-26T11:37:26.950Z,22.00
2018-11-26T11:39:58.080Z,21.27
2018-11-26T11:42:28.372Z,21.70
2018-11-26T11:44:58.939Z,24.43
2018-11-26T11:47:30.102Z,23.80
2018-11-26T11:50:01.742Z,23.20
2018-11-26T11:52:32.881Z,23.47
2018-11-26T11:55:04.041Z,23.17
2018-11-26T11:57:34.414Z,28.17
2018-11-26T12:00:04.986Z,23.37
2018-11-26T12:02:36.150Z,25.40
2018-11-26T12:05:06.716Z,22.70
2018-11-26T12:07:56.751Z,20.57
2018-11-26T12:10:28.099Z,23.67
2018-11-26T12:12:58.473Z,24.93
2018-11-26T12:15:29.160Z,20.03
2018-11-26T12:18:00.243Z,22.63
2018-11-26T12:20:50.777Z,22.57
2018-11-26T12:23:21.435Z,21.03
2018-11-26T12:25:53.090Z,20.20
2018-11-26T12:28:24.258Z,22.60
2018-11-26T12:30:56.673Z,20.63
2018-11-26T12:35:55.021Z,22.10
2018-11-26T12:38:25.579Z,19.73
2018-11-26T12:41:01.386Z,20.10
2018-11-26T12:43:32.520Z,22.50
2018-11-26T12:46:02.893Z,22.30
2018-11-26T12:48:34.254Z,24.77
2018-11-26T12:51:26.753Z,20.67
2018-11-26T12:53:57.912Z,18.97
2018-11-26T12:56:28.231Z,21.13
2018-11-26T12:58:59.584Z,21.17
2018-11-26T13:01:30.931Z,19.60
2018-11-26T13:04:01.554Z,20.33
2018-11-26T13:06:31.928Z,18.93
2018-11-26T13:09:02.325Z,18.90
2018-11-26T13:11:32.689Z,19.20
2018-11-26T13:14:03.061Z,19.27
2018-11-26T13:16:34.220Z,17.43
2018-11-26T13:19:04.590Z,18.50
2018-11-26T13:21:34.965Z,23.50
2018-11-26T13:24:05.362Z,19.93
2018-11-26T13:26:38.220Z,23.80
2018-11-26T13:29:27.933Z,22.73
2018-11-26T13:31:58.249Z,23.30
2018-11-26T13:34:28.565Z,19.87
2018-11-26T13:36:59.990Z,23.37
2018-11-26T13:39:36.448Z,19.60
2018-11-26T13:42:06.850Z,21.90
2018-11-26T13:44:38.190Z,23.47
2018-11-26T13:47:09.329Z,20.97
2018-11-26T13:49:40.692Z,23.23
2018-11-26T13:52:10.999Z,26.23
2018-11-26T13:54:41.371Z,23.43
2018-11-26T13:57:15.048Z,23.60
2018-11-26T13:59:48.905Z,20.57
2018-11-26T14:02:19.604Z,20.17
2018-11-26T14:04:49.696Z,21.80
2018-11-26T14:07:20.251Z,21.53
2018-11-26T14:09:50.622Z,22.40
2018-11-26T14:12:23.632Z,22.67
2018-11-26T14:14:54.006Z,24.77
2018-11-26T14:17:26.656Z,21.37
2018-11-26T14:19:57.823Z,22.17
2018-11-26T14:22:28.201Z,21.63
2018-11-26T14:24:58.574Z,23.93
2018-11-26T14:27:29.181Z,19.70
2018-11-26T14:30:00.532Z,19.77
2018-11-26T14:32:31.091Z,24.00
2018-11-26T14:35:01.501Z,22.97
2018-11-26T14:37:32.692Z,22.37
2018-11-26T14:40:05.678Z,23.53
2018-11-26T14:42:38.082Z,18.23
2018-11-26T14:45:08.440Z,22.37
2018-11-26T14:47:39.056Z,21.90
2018-11-26T14:50:10.162Z,21.77
2018-11-26T14:52:40.478Z,22.03
2018-11-26T14:55:12.898Z,21.43
2018-11-26T14:57:44.003Z,24.30
2018-11-26T15:00:14.377Z,23.60
2018-11-26T15:02:44.750Z,26.67
2018-11-26T15:05:15.148Z,23.73
2018-11-26T15:07:45.462Z,24.37
2018-11-26T15:10:16.090Z,22.97
2018-11-26T15:12:46.500Z,24.73
2018-11-26T15:15:17.580Z,25.07
2018-11-26T15:17:50.844Z,26.70
2018-11-26T15:20:22.201Z,26.37
2018-11-26T15:22:52.824Z,25.60
2018-11-26T15:28:05.901Z,23.40
2018-11-26T15:30:36.245Z,24.63
2018-11-26T15:33:06.835Z,24.17
2018-11-26T15:35:37.230Z,23.70
2018-11-26T15:38:07.605Z,25.53
2018-11-26T15:40:37.945Z,23.97
2018-11-26T15:43:11.032Z,23.60
2018-11-26T15:45:49.436Z,24.00
2018-11-26T15:48:21.873Z,24.73
2018-11-26T15:50:53.227Z,22.13
2018-11-26T15:53:23.601Z,22.63
2018-11-26T15:55:59.122Z,21.27
2018-11-26T15:58:30.142Z,20.73
2018-11-26T16:01:01.224Z,21.53
2018-11-26T16:03:34.420Z,24.07
2018-11-26T16:06:27.122Z,23.23
2018-11-26T16:08:58.471Z,24.67
2018-11-26T16:11:29.613Z,20.93
2018-11-26T16:13:59.991Z,29.48
2018-11-26T16:16:36.960Z,23.37
2018-11-26T16:19:07.275Z,23.43
2018-11-26T16:21:37.599Z,24.90
2018-11-26T16:24:08.211Z,20.13
2018-11-26T16:26:38.583Z,18.90
2018-11-26T16:29:28.352Z,20.63
2018-11-26T16:32:10.621Z,21.47
2018-11-26T16:34:41.254Z,20.83
2018-11-26T16:37:12.601Z,23.83
2018-11-26T16:39:46.765Z,22.20
2018-11-26T16:42:23.890Z,25.50
2018-11-26T16:44:54.478Z,22.47
2018-11-26T16:47:27.096Z,25.25
2018-11-26T16:50:00.192Z,27.73
2018-11-26T16:52:31.525Z,22.43
2018-11-26T16:55:02.079Z,19.70
2018-11-26T16:57:33.439Z,20.03
2018-11-26T17:00:04.032Z,20.60
2018-11-26T17:02:34.583Z,18.73
2018-11-26T17:05:07.826Z,18.03
2018-11-26T17:07:40.435Z,19.57
2018-11-26T17:10:13.777Z,20.93
2018-11-26T17:12:44.365Z,19.27
2018-11-26T17:15:15.707Z,22.03
2018-11-26T17:17:46.289Z,19.93
2018-11-26T17:20:19.334Z,20.40
2018-11-26T17:22:49.991Z,20.67
2018-11-26T17:25:30.994Z,20.73
2018-11-26T17:28:07.452Z,23.93
2018-11-26T17:30:43.637Z,23.00
2018-11-26T17:33:14.230Z,24.10
2018-11-26T17:35:45.326Z,20.23
2018-11-26T17:38:19.016Z,20.90
2018-11-26T17:40:55.135Z,20.27
2018-11-26T17:43:26.253Z,22.83
2018-11-26T17:45:57.944Z,21.40
2018-11-26T17:48:32.326Z,22.27
2018-11-26T17:51:02.946Z,23.47
2018-11-26T17:53:37.156Z,20.83
2018-11-26T17:56:07.031Z,23.23
2018-11-26T18:01:26.621Z,19.73
2018-11-26T18:03:57.756Z,20.70
2018-11-26T18:06:28.897Z,18.70
2018-11-26T18:09:05.982Z,22.33
2018-11-26T18:11:40.303Z,21.93
2018-11-26T18:14:11.761Z,18.53
2018-11-26T18:16:43.109Z,22.00
2018-11-26T18:19:14.458Z,22.03
2018-11-26T18:21:45.633Z,22.47
2018-11-26T18:24:16.233Z,19.77
2018-11-26T18:26:47.375Z,18.90
2018-11-26T18:29:18.826Z,23.20
2018-11-26T18:31:49.915Z,23.83
2018-11-26T18:34:25.620Z,20.10
2018-11-26T18:36:56.971Z,22.47
2018-11-26T18:39:28.321Z,23.70
2018-11-26T18:41:59.773Z,23.07
2018-11-26T18:44:35.010Z,22.53
2018-11-26T18:47:05.408Z,23.17
2018-11-26T18:49:38.276Z,29.90
2018-11-26T18:52:28.242Z,28.80
2018-11-26T18:54:58.845Z,22.77
2018-11-26T18:57:29.984Z,22.93
2018-11-26T19:00:01.168Z,22.43
2018-11-26T19:02:32.569Z,20.87
2018-11-26T19:05:02.938Z,21.80
2018-11-26T19:07:39.979Z,21.63
2018-11-26T19:10:10.539Z,22.40
2018-11-26T19:12:41.879Z,23.40
2018-11-26T19:15:20.750Z,23.70
2018-11-26T19:18:10.492Z,23.10
2018-11-26T19:20:41.106Z,22.10
2018-11-26T19:23:12.237Z,23.33
2018-11-26T19:25:45.243Z,21.67
2018-11-26T19:28:20.433Z,22.27
2018-11-26T19:30:53.463Z,20.20
2018-11-26T19:33:33.327Z,27.37
2018-11-26T19:36:03.948Z,21.60
2018-11-26T19:38:34.322Z,24.40
2018-11-26T19:41:12.462Z,22.93
2018-11-26T19:43:42.835Z,22.93
2018-11-26T19:46:16.166Z,23.73
2018-11-26T19:48:46.754Z,21.50
2018-11-26T19:51:19.912Z,25.63
2018-11-26T19:53:53.003Z,24.03
2018-11-26T19:56:25.421Z,24.23
2018-11-26T19:58:55.794Z,23.10
2018-11-26T20:01:26.195Z,24.63
2018-11-26T20:03:57.596Z,25.90
2018-11-26T20:06:31.632Z,25.13
2018-11-26T20:09:01.949Z,26.03
2018-11-26T20:11:35.429Z,26.87
2018-11-26T20:14:06.607Z,24.20
2018-11-26T20:16:40.045Z,21.83
2018-11-26T20:19:13.261Z,35.55
2018-11-26T20:21:44.341Z,27.33
2018-11-26T20:24:21.801Z,26.63
2018-11-26T20:26:52.887Z,24.03
2018-11-26T20:29:29.618Z,24.93
2018-11-26T20:32:00.962Z,24.57
2018-11-26T20:34:32.041Z,25.53
2018-11-26T20:37:02.627Z,22.43
2018-11-26T20:39:32.976Z,23.17
2018-11-26T20:42:04.282Z,29.67
2018-11-26T20:47:23.285Z,27.07
2018-11-26T20:49:54.649Z,25.13
2018-11-26T20:52:32.058Z,27.90
2018-11-26T20:55:05.613Z,25.07
2018-11-26T20:57:38.833Z,27.73
2018-11-26T21:00:10.175Z,26.57
2018-11-26T21:02:41.606Z,27.43
2018-11-26T21:05:11.911Z,27.30
2018-11-26T21:07:45.354Z,23.53
2018-11-26T21:10:19.286Z,27.57
2018-11-26T21:12:49.889Z,25.00
2018-11-26T21:15:20.268Z,27.20
2018-11-26T21:17:50.950Z,27.80
2018-11-26T21:20:25.065Z,25.70
2018-11-26T21:22:57.283Z,27.50
2018-11-26T21:25:30.636Z,26.50
2018-11-26T21:28:04.333Z,24.73
2018-11-26T21:30:34.736Z,26.23
2018-11-26T21:33:05.397Z,28.53
2018-11-26T21:35:36.745Z,26.10
2018-11-26T21:38:13.379Z,25.57
2018-11-26T21:40:51.158Z,26.73
2018-11-26T21:43:28.726Z,30.23
2018-11-26T21:45:59.346Z,31.07
2018-11-26T21:48:30.691Z,33.37
2018-11-26T21:51:01.858Z,27.10
2018-11-26T21:53:32.229Z,33.10
2018-11-26T21:56:05.312Z,31.80
2018-11-26T21:58:35.719Z,33.43
2018-11-26T22:01:12.070Z,31.67
2018-11-26T22:03:47.915Z,29.23
2018-11-26T22:06:21.129Z,31.27
2018-11-26T22:08:54.868Z,34.00
2018-11-26T22:11:30.458Z,27.47
2018-11-26T22:14:03.561Z,31.63
2018-11-26T22:16:33.879Z,31.47
2018-11-26T22:19:04.502Z,28.30
2018-11-26T22:21:35.678Z,33.00
2018-11-26T22:24:10.085Z,28.73
2018-11-26T22:26:43.303Z,29.47
2018-11-26T22:29:33.355Z,27.63
2018-11-26T22:32:03.768Z,30.60
2018-11-26T22:34:34.908Z,28.63
2018-11-26T22:37:06.045Z,26.77
2018-11-26T22:39:36.624Z,28.50
2018-11-26T22:42:09.766Z,32.17
2018-11-26T22:44:40.134Z,29.30
2018-11-26T22:47:13.172Z,32.03
2018-11-26T22:49:43.486Z,28.27
2018-11-26T22:52:13.804Z,28.87
2018-11-26T22:54:44.200Z,28.50
2018-11-26T22:57:14.798Z,34.20
2018-11-26T22:59:45.935Z,29.97
2018-11-26T23:02:17.115Z,25.30
2018-11-26T23:04:47.431Z,25.10
2018-11-26T23:07:17.749Z,25.97
2018-11-26T23:09:48.860Z,24.40
2018-11-26T23:12:19.235Z,25.67
2018-11-26T23:14:49.609Z,30.93
2018-11-26T23:17:23.045Z,31.33
2018-11-26T23:19:53.419Z,26.57
2018-11-26T23:22:26.421Z,25.83
2018-11-26T23:24:56.821Z,27.83
2018-11-26T23:27:27.138Z,29.93
2018-11-26T23:30:02.659Z,29.73
2018-11-26T23:32:34.000Z,23.97
2018-11-26T23:35:05.345Z,26.57
2018-11-26T23:37:36.505Z,23.10
2018-11-26T23:40:06.878Z,25.67
2018-11-26T23:42:37.446Z,25.40
2018-11-26T23:45:08.559Z,23.63
2018-11-26T23:47:38.931Z,23.23
2018-11-26T23:50:09.300Z,23.97
2018-11-26T23:53:01.060Z,27.73
2018-11-26T23:55:31.612Z,25.50
2018-11-26T23:58:03.005Z,25.10
